createdAt,value
2018-02-02T06:18:26.573Z,0.00
2018-02-02T06:19:26.561Z,0.00
2018-02-02T06:21:19.485Z,0.00
2018-02-02T06:22:19.498Z,0.00
2018-02-02T06:24:12.423Z,0.00
2018-02-02T06:25:12.404Z,0.00
2018-02-02T06:27:05.369Z,0.00
2018-02-02T06:28:05.338Z,0.00
2018-02-02T06:29:58.253Z,0.00
2018-02-02T06:30:58.267Z,0.00
2018-02-02T06:32:51.204Z,0.00
2018-02-02T06:33:51.195Z,0.00
2018-02-02T06:35:44.126Z,0.00
2018-02-02T06:36:44.124Z,0.00
2018-02-02T06:38:37.065Z,0.00
2018-02-02T06:39:37.062Z,0.00
2018-02-02T06:41:29.983Z,0.00
2018-02-02T06:42:29.994Z,0.00
2018-02-02T06:44:22.925Z,0.00
2018-02-02T06:45:22.917Z,0.00
2018-02-02T06:47:15.842Z,0.00
2018-02-02T06:48:15.846Z,4.00
2018-02-02T06:50:08.781Z,4.00
2018-02-02T06:51:08.779Z,4.00
2018-02-02T06:53:01.693Z,4.00
2018-02-02T06:54:01.705Z,4.00
2018-02-02T06:55:54.637Z,4.00
2018-02-02T06:56:54.630Z,8.00
2018-02-02T06:58:47.690Z,8.00
2018-02-02T06:59:47.558Z,12.00
2018-02-02T07:01:40.478Z,12.00
2018-02-02T07:02:40.489Z,20.00
2018-02-02T07:04:33.428Z,28.00
2018-02-02T07:05:33.414Z,32.00
2018-02-02T07:07:26.434Z,40.00
2018-02-02T07:08:26.360Z,44.00
2018-02-02T07:10:19.283Z,44.00
2018-02-02T07:11:19.275Z,52.00
2018-02-02T07:13:12.380Z,60.00
2018-02-02T07:14:12.257Z,64.00
2018-02-02T07:16:05.216Z,64.00
2018-02-02T07:17:05.210Z,64.00
2018-02-02T07:18:58.221Z,64.00
2018-02-02T07:19:58.162Z,72.00
2018-02-02T07:21:51.636Z,68.00
2018-02-02T07:22:51.620Z,76.00
2018-02-02T07:24:44.571Z,104.00
2018-02-02T07:25:44.591Z,108.00
2018-02-02T07:27:37.542Z,120.00
2018-02-02T07:28:37.534Z,128.00
2018-02-02T07:30:30.524Z,140.00
2018-02-02T07:31:30.479Z,164.00
2018-02-02T07:33:23.478Z,196.00
2018-02-02T07:34:23.485Z,212.00
2018-02-02T07:36:16.914Z,240.00
2018-02-02T07:37:16.902Z,232.00
2018-02-02T07:39:09.847Z,204.00
2018-02-02T07:40:09.864Z,224.00
2018-02-02T07:42:02.826Z,264.00
2018-02-02T07:43:02.812Z,260.00
2018-02-02T07:44:55.755Z,264.00
2018-02-02T07:45:55.760Z,272.00
2018-02-02T07:47:48.728Z,296.00
2018-02-02T07:48:48.711Z,256.00
2018-02-02T07:50:41.689Z,228.00
2018-02-02T07:51:41.668Z,204.00
2018-02-02T07:53:34.700Z,224.00
2018-02-02T07:54:34.621Z,244.00
2018-02-02T07:56:27.572Z,228.00
2018-02-02T07:57:27.597Z,220.00
2018-02-02T07:59:20.551Z,212.00
2018-02-02T08:00:20.529Z,204.00
2018-02-02T08:02:13.540Z,192.00
2018-02-02T08:03:13.479Z,184.00
2018-02-02T08:05:06.441Z,180.00
2018-02-02T08:06:06.433Z,196.00
2018-02-02T08:07:59.393Z,224.00
2018-02-02T08:08:59.389Z,228.00
2018-02-02T08:10:52.340Z,192.00
2018-02-02T08:11:52.345Z,232.00
2018-02-02T08:13:45.301Z,196.00
2018-02-02T08:14:45.305Z,216.00
2018-02-02T08:16:38.232Z,280.00
2018-02-02T08:17:38.246Z,236.00
2018-02-02T08:19:31.209Z,240.00
2018-02-02T08:20:31.200Z,220.00
2018-02-02T08:22:24.155Z,268.00
2018-02-02T08:23:24.156Z,264.00
2018-02-02T08:25:17.111Z,260.00
2018-02-02T08:26:17.106Z,256.00
2018-02-02T08:28:10.580Z,240.00
2018-02-02T08:29:10.567Z,232.00
2018-02-02T08:31:03.522Z,292.00
2018-02-02T08:32:03.522Z,312.00
2018-02-02T08:33:56.485Z,336.00
2018-02-02T08:34:56.479Z,356.00
2018-02-02T08:36:49.422Z,380.00
2018-02-02T08:37:49.430Z,400.00
2018-02-02T08:39:42.469Z,268.00
2018-02-02T08:40:42.420Z,220.00
2018-02-02T08:42:35.328Z,212.00
2018-02-02T08:43:35.332Z,236.00
2018-02-02T08:45:28.271Z,268.00
2018-02-02T08:46:28.258Z,284.00
2018-02-02T08:48:21.198Z,316.00
2018-02-02T08:49:21.189Z,344.00
2018-02-02T08:51:14.128Z,364.00
2018-02-02T08:52:14.143Z,412.00
2018-02-02T08:54:07.078Z,524.00
2018-02-02T08:55:07.043Z,580.00
2018-02-02T08:56:59.970Z,620.00
2018-02-02T08:57:59.977Z,712.00
2018-02-02T08:59:52.974Z,832.00
2018-02-02T09:00:52.924Z,756.00
2018-02-02T09:02:45.867Z,944.00
2018-02-02T09:03:45.854Z,928.00
2018-02-02T09:05:38.866Z,956.00
2018-02-02T09:06:38.860Z,964.00
2018-02-02T09:08:31.782Z,840.00
2018-02-02T09:09:31.793Z,732.00
2018-02-02T09:11:24.731Z,660.00
2018-02-02T09:12:24.728Z,696.00
2018-02-02T09:14:17.636Z,1076.00
2018-02-02T09:15:17.739Z,1280.00
2018-02-02T09:17:10.709Z,2252.00
2018-02-02T09:18:10.760Z,2460.00
2018-02-02T09:20:03.714Z,2636.00
2018-02-02T09:21:03.616Z,2156.00
2018-02-02T09:22:56.569Z,1980.00
2018-02-02T09:23:56.576Z,1864.00
2018-02-02T09:25:49.552Z,1464.00
2018-02-02T09:26:49.986Z,1488.00
2018-02-02T09:28:42.884Z,1636.00
2018-02-02T09:29:42.543Z,1716.00
2018-02-02T09:31:35.667Z,1592.00
2018-02-02T09:32:35.820Z,1640.00
2018-02-02T09:34:28.480Z,1572.00
2018-02-02T09:35:28.493Z,1536.00
2018-02-02T09:37:21.430Z,1548.00
2018-02-02T09:38:21.415Z,1804.00
2018-02-02T09:40:14.384Z,1684.00
2018-02-02T09:41:14.393Z,1312.00
2018-02-02T09:43:07.358Z,852.00
2018-02-02T09:44:07.339Z,740.00
2018-02-02T09:46:00.293Z,1068.00
2018-02-02T09:47:00.299Z,992.00
2018-02-02T09:48:53.242Z,872.00
2018-02-02T09:49:53.231Z,804.00
2018-02-02T09:51:46.173Z,1048.00
2018-02-02T09:52:46.161Z,1016.00
2018-02-02T09:54:39.581Z,1104.00
2018-02-02T09:55:39.601Z,1216.00
2018-02-02T09:57:32.537Z,1104.00
2018-02-02T09:58:32.526Z,1092.00
2018-02-02T10:00:25.438Z,1192.00
2018-02-02T10:01:25.456Z,1228.00
2018-02-02T10:03:18.394Z,880.00
2018-02-02T10:04:18.384Z,820.00
2018-02-02T10:06:11.312Z,712.00
2018-02-02T10:07:11.409Z,728.00
2018-02-02T10:09:04.256Z,872.00
2018-02-02T10:10:04.247Z,780.00
2018-02-02T10:11:57.329Z,532.00
2018-02-02T10:12:57.290Z,440.00
2018-02-02T10:14:51.768Z,352.00
2018-02-02T10:15:51.775Z,344.00
2018-02-02T10:17:44.717Z,368.00
2018-02-02T10:18:44.726Z,468.00
2018-02-02T10:20:37.623Z,396.00
2018-02-02T10:21:37.633Z,356.00
2018-02-02T10:23:30.576Z,324.00
2018-02-02T10:24:30.571Z,308.00
2018-02-02T10:26:23.495Z,320.00
2018-02-02T10:27:23.500Z,324.00
2018-02-02T10:29:16.439Z,384.00
2018-02-02T10:30:16.429Z,448.00
2018-02-02T10:32:09.357Z,624.00
2018-02-02T10:33:09.368Z,824.00
2018-02-02T10:35:02.312Z,748.00
2018-02-02T10:36:02.304Z,692.00
2018-02-02T10:37:55.238Z,776.00
2018-02-02T10:38:55.236Z,1124.00
2018-02-02T10:40:48.179Z,1152.00
2018-02-02T10:41:48.167Z,988.00
2018-02-02T10:43:41.082Z,892.00
2018-02-02T10:44:41.094Z,996.00
2018-02-02T10:46:34.029Z,1032.00
2018-02-02T10:47:34.026Z,984.00
2018-02-02T10:49:26.962Z,740.00
2018-02-02T10:50:26.955Z,656.00
2018-02-02T10:52:19.881Z,936.00
2018-02-02T10:53:19.897Z,992.00
2018-02-02T10:55:12.844Z,788.00
2018-02-02T10:56:12.832Z,692.00
2018-02-02T10:58:05.745Z,652.00
2018-02-02T10:59:05.762Z,732.00
2018-02-02T11:00:58.703Z,960.00
2018-02-02T11:01:58.695Z,964.00
2018-02-02T11:03:51.615Z,956.00
2018-02-02T11:04:51.624Z,1120.00
2018-02-02T11:06:44.582Z,1228.00
2018-02-02T11:07:44.560Z,1276.00
2018-02-02T11:09:37.561Z,2236.00
2018-02-02T11:10:37.574Z,2716.00
2018-02-02T11:12:30.536Z,2672.00
2018-02-02T11:13:30.522Z,2568.00
2018-02-02T11:15:23.472Z,2700.00
2018-02-02T11:16:23.478Z,2608.00
2018-02-02T11:18:16.439Z,2264.00
2018-02-02T11:19:16.412Z,2096.00
2018-02-02T11:21:09.372Z,2104.00
2018-02-02T11:22:09.344Z,2032.00
2018-02-02T11:24:02.320Z,1988.00
2018-02-02T11:25:02.336Z,1964.00
2018-02-02T11:26:55.269Z,2112.00
2018-02-02T11:27:55.264Z,2156.00
2018-02-02T11:29:48.184Z,2184.00
2018-02-02T11:30:48.196Z,2212.00
2018-02-02T11:32:41.142Z,2340.00
2018-02-02T11:33:41.136Z,2448.00
2018-02-02T11:35:34.059Z,2552.00
2018-02-02T11:36:34.067Z,2556.00
2018-02-02T11:38:27.020Z,2524.00
2018-02-02T11:39:27.012Z,2468.00
2018-02-02T11:41:19.928Z,2460.00
2018-02-02T11:42:19.942Z,2512.00
2018-02-02T11:44:12.883Z,2772.00
2018-02-02T11:45:12.880Z,2784.00
2018-02-02T11:47:05.798Z,2992.00
2018-02-02T11:48:05.817Z,3228.00
2018-02-02T11:49:58.754Z,3872.00
2018-02-02T11:50:58.754Z,4044.00
2018-02-02T11:52:51.676Z,4004.00
2018-02-02T11:53:51.683Z,3984.00
2018-02-02T11:55:45.127Z,3932.00
2018-02-02T11:56:45.118Z,4240.00
2018-02-02T11:58:38.070Z,4432.00
2018-02-02T11:59:38.054Z,4000.00
2018-02-02T12:01:30.988Z,3776.00
2018-02-02T12:02:30.997Z,3664.00
2018-02-02T12:04:23.944Z,3392.00
2018-02-02T12:05:23.932Z,3252.00
2018-02-02T12:07:16.856Z,3088.00
2018-02-02T12:08:16.872Z,2844.00
2018-02-02T12:10:09.820Z,2560.00
2018-02-02T12:11:09.811Z,2424.00
2018-02-02T12:13:02.742Z,2420.00
2018-02-02T12:14:02.755Z,2480.00
2018-02-02T12:15:55.698Z,2700.00
2018-02-02T12:16:55.697Z,2884.00
2018-02-02T12:18:48.618Z,3084.00
2018-02-02T12:19:48.628Z,3200.00
2018-02-02T12:21:41.578Z,3372.00
2018-02-02T12:22:41.573Z,3324.00
2018-02-02T12:24:34.510Z,3288.00
2018-02-02T12:25:34.505Z,3256.00
2018-02-02T12:27:27.434Z,3260.00
2018-02-02T12:28:27.441Z,3220.00
2018-02-02T12:30:20.384Z,3216.00
2018-02-02T12:31:20.378Z,3136.00
2018-02-02T12:33:13.312Z,3088.00
2018-02-02T12:34:13.322Z,3008.00
2018-02-02T12:36:06.284Z,2744.00
2018-02-02T12:37:06.275Z,2724.00
2018-02-02T12:38:59.205Z,2640.00
2018-02-02T12:39:59.212Z,2588.00
2018-02-02T12:41:52.162Z,2644.00
2018-02-02T12:42:52.196Z,2636.00
2018-02-02T12:44:45.136Z,2776.00
2018-02-02T12:45:45.155Z,2820.00
2018-02-02T12:47:38.131Z,2856.00
2018-02-02T12:48:38.108Z,2844.00
2018-02-02T12:50:31.058Z,2784.00
2018-02-02T12:51:31.055Z,2840.00
2018-02-02T12:53:23.980Z,2868.00
2018-02-02T12:54:23.993Z,2812.00
2018-02-02T12:56:16.937Z,2672.00
2018-02-02T12:57:16.925Z,2612.00
2018-02-02T12:59:09.857Z,2432.00
2018-02-02T13:00:09.867Z,2244.00
2018-02-02T13:02:02.841Z,2152.00
2018-02-02T13:03:02.798Z,2032.00
2018-02-02T13:04:55.726Z,1784.00
2018-02-02T13:05:55.738Z,1564.00
2018-02-02T13:07:48.679Z,1628.00
2018-02-02T13:08:48.677Z,1740.00
2018-02-02T13:10:41.669Z,1952.00
2018-02-02T13:11:41.639Z,2048.00
2018-02-02T13:13:34.553Z,2424.00
2018-02-02T13:14:34.549Z,2616.00
2018-02-02T13:16:28.487Z,2812.00
2018-02-02T13:17:28.477Z,2660.00
2018-02-02T13:19:21.543Z,2340.00
2018-02-02T13:20:21.451Z,2368.00
2018-02-02T13:22:14.481Z,2244.00
2018-02-02T13:23:14.438Z,2064.00
2018-02-02T13:25:07.443Z,1892.00
2018-02-02T13:26:07.445Z,1892.00
2018-02-02T13:28:00.545Z,1964.00
2018-02-02T13:29:00.307Z,2272.00
2018-02-02T13:30:53.504Z,2556.00
2018-02-02T13:31:53.247Z,2580.00
2018-02-02T13:33:46.191Z,2760.00
2018-02-02T13:34:46.180Z,2884.00
2018-02-02T13:36:39.111Z,3116.00
2018-02-02T13:37:39.205Z,3180.00
2018-02-02T13:39:32.565Z,3236.00
2018-02-02T13:40:32.601Z,3220.00
2018-02-02T13:42:25.546Z,3132.00
2018-02-02T13:43:25.541Z,3068.00
2018-02-02T13:45:18.459Z,2864.00
2018-02-02T13:46:18.517Z,2824.00
2018-02-02T13:48:11.386Z,2848.00
2018-02-02T13:49:11.389Z,2832.00
2018-02-02T13:51:04.333Z,2860.00
2018-02-02T13:52:04.316Z,2816.00
2018-02-02T13:53:57.274Z,2784.00
2018-02-02T13:54:57.286Z,2692.00
2018-02-02T13:56:50.188Z,2476.00
2018-02-02T13:57:50.203Z,2356.00
2018-02-02T13:59:43.131Z,2280.00
2018-02-02T14:00:43.128Z,2288.00
2018-02-02T14:02:36.050Z,2404.00
2018-02-02T14:03:36.076Z,2412.00
2018-02-02T14:05:29.002Z,2364.00
2018-02-02T14:06:29.016Z,2264.00
2018-02-02T14:08:22.422Z,2092.00
2018-02-02T14:09:22.428Z,2092.00
2018-02-02T14:11:15.382Z,1808.00
2018-02-02T14:12:15.375Z,1796.00
2018-02-02T14:14:08.311Z,2092.00
2018-02-02T14:15:08.306Z,2116.00
2018-02-02T14:17:01.253Z,1992.00
2018-02-02T14:18:01.242Z,1816.00
2018-02-02T14:19:54.187Z,1688.00
2018-02-02T14:20:54.179Z,1628.00
2018-02-02T14:22:47.114Z,1556.00
2018-02-02T14:23:47.121Z,1656.00
2018-02-02T14:25:40.068Z,1824.00
2018-02-02T14:26:40.060Z,1796.00
2018-02-02T14:28:33.030Z,1696.00
2018-02-02T14:29:32.992Z,1644.00
2018-02-02T14:31:25.936Z,1596.00
2018-02-02T14:32:25.928Z,1480.00
2018-02-02T14:34:18.848Z,1160.00
2018-02-02T14:35:18.859Z,1028.00
2018-02-02T14:37:11.803Z,1136.00
2018-02-02T14:38:11.798Z,1244.00
2018-02-02T14:40:04.747Z,1428.00
2018-02-02T14:41:04.729Z,1480.00
2018-02-02T14:42:57.660Z,1348.00
2018-02-02T14:43:57.672Z,1336.00
2018-02-02T14:45:50.830Z,1160.00
2018-02-02T14:46:50.677Z,1296.00
2018-02-02T14:48:43.584Z,1404.00
2018-02-02T14:49:43.599Z,1428.00
2018-02-02T14:51:36.542Z,1452.00
2018-02-02T14:52:36.536Z,1260.00
2018-02-02T14:54:29.450Z,808.00
2018-02-02T14:55:29.463Z,700.00
2018-02-02T14:57:22.408Z,540.00
2018-02-02T14:58:22.401Z,508.00
2018-02-02T15:00:15.324Z,476.00
2018-02-02T15:01:15.335Z,440.00
2018-02-02T15:03:08.282Z,500.00
2018-02-02T15:04:08.276Z,548.00
2018-02-02T15:06:01.220Z,644.00
2018-02-02T15:07:01.216Z,592.00
2018-02-02T15:08:54.141Z,584.00
2018-02-02T15:09:54.170Z,564.00
2018-02-02T15:11:47.082Z,692.00
2018-02-02T15:12:47.075Z,824.00
2018-02-02T15:14:40.000Z,1120.00
2018-02-02T15:15:40.014Z,1256.00
2018-02-02T15:17:32.952Z,1292.00
2018-02-02T15:18:32.941Z,1236.00
2018-02-02T15:20:25.861Z,1192.00
2018-02-02T15:21:25.877Z,1180.00
2018-02-02T15:23:18.818Z,1048.00
2018-02-02T15:24:18.800Z,900.00
2018-02-02T15:26:12.228Z,868.00
2018-02-02T15:27:12.243Z,844.00
2018-02-02T15:29:05.183Z,728.00
2018-02-02T15:30:05.172Z,704.00
2018-02-02T15:31:58.588Z,776.00
2018-02-02T15:32:58.601Z,800.00
2018-02-02T15:34:51.545Z,812.00
2018-02-02T15:35:51.537Z,796.00
2018-02-02T15:37:44.474Z,672.00
2018-02-02T15:38:44.464Z,540.00
2018-02-02T15:40:37.398Z,364.00
2018-02-02T15:41:37.406Z,316.00
2018-02-02T15:43:30.345Z,284.00
2018-02-02T15:44:30.337Z,276.00
2018-02-02T15:46:23.262Z,304.00
2018-02-02T15:47:23.272Z,320.00
2018-02-02T15:49:16.710Z,284.00
2018-02-02T15:50:16.699Z,256.00
2018-02-02T15:52:09.629Z,248.00
2018-02-02T15:53:09.640Z,280.00
2018-02-02T15:55:03.083Z,300.00
2018-02-02T15:56:03.065Z,288.00
2018-02-02T15:57:56.043Z,256.00
2018-02-02T15:58:56.001Z,244.00
2018-02-02T16:00:48.923Z,216.00
2018-02-02T16:01:48.944Z,188.00
2018-02-02T16:03:41.889Z,152.00
2018-02-02T16:04:41.877Z,132.00
2018-02-02T16:06:34.803Z,108.00
2018-02-02T16:07:34.810Z,104.00
2018-02-02T16:09:27.751Z,124.00
2018-02-02T16:10:27.742Z,116.00
2018-02-02T16:12:20.657Z,96.00
2018-02-02T16:13:20.670Z,84.00
2018-02-02T16:15:13.611Z,96.00
2018-02-02T16:16:13.609Z,100.00
2018-02-02T16:18:06.548Z,92.00
2018-02-02T16:19:06.557Z,84.00
2018-02-02T16:21:00.003Z,88.00
2018-02-02T16:21:59.988Z,80.00
2018-02-02T16:23:52.947Z,64.00
2018-02-02T16:24:52.920Z,60.00
2018-02-02T16:26:45.843Z,48.00
2018-02-02T16:27:45.852Z,40.00
2018-02-02T16:29:38.796Z,32.00
2018-02-02T16:30:38.778Z,28.00
2018-02-02T16:32:31.716Z,24.00
2018-02-02T16:33:31.724Z,20.00
2018-02-02T16:35:24.689Z,16.00
2018-02-02T16:36:24.659Z,16.00
2018-02-02T16:38:17.578Z,12.00
2018-02-02T16:39:17.587Z,12.00
2018-02-02T16:41:10.537Z,12.00
2018-02-02T16:42:10.519Z,8.00
2018-02-02T16:44:03.451Z,4.00
2018-02-02T16:45:03.458Z,4.00
2018-02-02T16:46:56.408Z,4.00
2018-02-02T16:47:56.396Z,0.00
2018-02-02T16:49:49.363Z,4.00
2018-02-02T16:50:49.330Z,0.00
2018-02-02T16:52:42.252Z,4.00
2018-02-02T16:53:42.264Z,0.00
2018-02-02T16:55:35.211Z,0.00
2018-02-02T16:56:35.201Z,4.00
2018-02-02T16:58:28.517Z,0.00
2018-02-02T16:59:28.328Z,0.00
2018-02-02T17:01:21.072Z,0.00
2018-02-02T17:02:21.064Z,0.00
2018-02-02T17:04:13.989Z,0.00
2018-02-02T17:05:13.996Z,0.00
2018-02-02T17:07:08.437Z,0.00
2018-02-02T17:08:08.441Z,0.00
2018-02-02T17:10:01.353Z,0.00
2018-02-02T17:11:01.359Z,0.00
2018-02-02T17:12:54.798Z,0.00
2018-02-02T17:13:54.789Z,0.00
2018-02-02T17:15:47.729Z,0.00
2018-02-02T17:16:47.721Z,0.00
2018-02-02T17:18:40.644Z,0.00
2018-02-02T17:19:40.649Z,0.00
2018-02-02T17:21:33.592Z,0.00
2018-02-02T17:22:33.581Z,0.00
2018-02-02T17:24:26.499Z,0.00
2018-02-02T17:25:26.520Z,0.00
2018-02-02T17:27:19.452Z,0.00
2018-02-02T17:28:19.442Z,0.00
2018-02-02T17:30:12.372Z,0.00
2018-02-02T17:31:12.381Z,0.00
2018-02-02T17:33:05.318Z,0.00
2018-02-02T17:34:05.311Z,0.00
2018-02-02T17:35:58.230Z,0.00
2018-02-02T17:36:58.239Z,0.00
2018-02-02T17:38:51.677Z,0.00
2018-02-02T17:39:51.670Z,0.00
2018-02-02T17:41:44.599Z,0.00
2018-02-02T17:42:44.608Z,0.00
2018-02-02T17:44:38.042Z,0.00
2018-02-02T17:45:38.038Z,0.00
2018-02-02T17:47:30.955Z,0.00
2018-02-02T17:48:30.958Z,0.00
2018-02-02T17:50:23.909Z,0.00
2018-02-02T17:51:23.901Z,0.00
2018-02-02T17:53:16.863Z,0.00
2018-02-02T17:54:16.835Z,0.00
2018-02-02T17:56:10.259Z,0.00
2018-02-02T17:57:10.264Z,0.00
2018-02-02T17:59:03.209Z,0.00
2018-02-02T18:00:03.199Z,0.00
2018-02-02T18:01:56.122Z,0.00
2018-02-02T18:02:56.130Z,0.00
2018-02-02T18:04:49.102Z,0.00
2018-02-02T18:05:49.068Z,0.00
2018-02-02T18:07:41.983Z,0.00
2018-02-02T18:08:41.998Z,0.00
2018-02-02T18:10:35.430Z,0.00
2018-02-02T18:11:35.425Z,0.00
2018-02-02T18:13:28.341Z,0.00
2018-02-02T18:14:28.356Z,0.00
2018-02-02T18:16:21.308Z,0.00
2018-02-02T18:17:21.295Z,0.00
2018-02-02T18:19:14.212Z,0.00
2018-02-02T18:20:14.226Z,0.00
2018-02-02T18:22:07.166Z,0.00
2018-02-02T18:23:07.160Z,0.00
2018-02-02T18:25:00.100Z,0.00
2018-02-02T18:26:00.097Z,0.00
2018-02-02T18:27:53.018Z,0.00
2018-02-02T18:28:53.029Z,0.00
2018-02-02T18:30:45.977Z,0.00
2018-02-02T18:31:45.969Z,0.00
2018-02-02T18:33:38.884Z,0.00
2018-02-02T18:34:38.894Z,0.00
2018-02-02T18:36:34.833Z,0.00
2018-02-02T18:37:34.821Z,0.00
2018-02-02T18:39:27.740Z,0.00
2018-02-02T18:40:27.747Z,0.00
2018-02-02T18:42:20.687Z,0.00
2018-02-02T18:43:20.686Z,0.00
2018-02-02T18:45:13.636Z,0.00
2018-02-02T18:46:13.610Z,0.00
2018-02-02T18:48:06.526Z,0.00
2018-02-02T18:49:06.538Z,0.00
2018-02-02T18:50:59.476Z,0.00
2018-02-02T18:51:59.467Z,0.00
2018-02-02T18:53:52.388Z,0.00
2018-02-02T18:54:52.401Z,0.00
2018-02-02T18:56:45.334Z,0.00
2018-02-02T18:57:45.329Z,0.00
2018-02-02T18:59:38.251Z,0.00
2018-02-02T19:00:38.256Z,0.00
2018-02-02T19:02:31.198Z,0.00
2018-02-02T19:03:31.188Z,0.00
2018-02-02T19:05:24.111Z,0.00
2018-02-02T19:06:24.117Z,0.00
2018-02-02T19:08:17.559Z,0.00
2018-02-02T19:09:17.546Z,0.00
2018-02-02T19:11:10.510Z,0.00
2018-02-02T19:12:10.491Z,0.00
2018-02-02T19:14:03.411Z,0.00
2018-02-02T19:15:03.419Z,0.00
2018-02-02T19:16:56.356Z,0.00
2018-02-02T19:17:56.347Z,0.00
2018-02-02T19:19:49.275Z,0.00
2018-02-02T19:20:49.278Z,0.00
2018-02-02T19:22:42.216Z,0.00
2018-02-02T19:23:42.205Z,0.00
2018-02-02T19:25:35.125Z,0.00
2018-02-02T19:26:35.132Z,0.00
2018-02-02T19:28:28.083Z,0.00
2018-02-02T19:29:28.069Z,0.00
2018-02-02T19:31:20.988Z,0.00
2018-02-02T19:32:21.009Z,0.00
2018-02-02T19:34:13.943Z,0.00
2018-02-02T19:35:13.934Z,0.00
2018-02-02T19:37:06.893Z,0.00
2018-02-02T19:38:06.865Z,0.00
2018-02-02T19:39:59.789Z,0.00
2018-02-02T19:40:59.799Z,0.00
2018-02-02T19:42:52.732Z,0.00
2018-02-02T19:43:52.727Z,0.00
2018-02-02T19:45:45.641Z,0.00
2018-02-02T19:46:45.665Z,0.00
2018-02-02T19:48:38.616Z,0.00
2018-02-02T19:49:38.586Z,0.00
2018-02-02T19:51:32.010Z,0.00
2018-02-02T19:52:32.018Z,0.00
2018-02-02T19:54:24.954Z,0.00
2018-02-02T19:55:24.954Z,0.00
2018-02-02T19:57:17.869Z,0.00
2018-02-02T19:58:17.884Z,0.00
2018-02-02T20:00:10.815Z,0.00
2018-02-02T20:01:10.816Z,0.00
2018-02-02T20:03:03.749Z,0.00
2018-02-02T20:04:03.740Z,0.00
2018-02-02T20:05:57.168Z,0.00
2018-02-02T20:06:57.174Z,0.00
2018-02-02T20:08:50.131Z,0.00
2018-02-02T20:09:50.121Z,0.00
2018-02-02T20:11:43.033Z,0.00
2018-02-02T20:12:43.084Z,0.00
2018-02-02T20:14:35.989Z,0.00
2018-02-02T20:15:35.971Z,0.00
2018-02-02T20:17:28.903Z,0.00
2018-02-02T20:18:28.916Z,0.00
2018-02-02T20:20:21.852Z,0.00
2018-02-02T20:21:21.843Z,0.00
2018-02-02T20:23:14.770Z,0.00
2018-02-02T20:24:14.778Z,0.00
2018-02-02T20:26:07.715Z,0.00
2018-02-02T20:27:07.709Z,0.00
2018-02-02T20:29:00.668Z,0.00
2018-02-02T20:30:00.637Z,0.00
2018-02-02T20:31:53.554Z,0.00
2018-02-02T20:32:53.567Z,0.00
2018-02-02T20:34:46.504Z,0.00
2018-02-02T20:35:46.492Z,0.00
2018-02-02T20:37:39.416Z,0.00
2018-02-02T20:38:39.426Z,0.00
2018-02-02T20:40:32.374Z,0.00
2018-02-02T20:41:32.365Z,0.00
2018-02-02T20:43:25.281Z,0.00
2018-02-02T20:44:25.292Z,0.00
2018-02-02T20:46:18.232Z,0.00
2018-02-02T20:47:18.225Z,0.00
2018-02-02T20:49:11.638Z,0.00
2018-02-02T20:50:11.650Z,0.00
2018-02-02T20:52:04.587Z,0.00
2018-02-02T20:53:04.581Z,0.00
2018-02-02T20:54:57.516Z,0.00
2018-02-02T20:55:57.512Z,0.00
2018-02-02T20:57:50.429Z,0.00
2018-02-02T20:58:50.441Z,0.00
2018-02-02T21:00:43.384Z,0.00
2018-02-02T21:01:43.370Z,0.00
2018-02-02T21:03:36.298Z,0.00
2018-02-02T21:04:36.305Z,0.00
2018-02-02T21:06:29.240Z,0.00
2018-02-02T21:07:29.228Z,0.00
2018-02-02T21:09:22.153Z,0.00
2018-02-02T21:10:22.161Z,0.00
2018-02-02T21:12:15.105Z,0.00
2018-02-02T21:13:15.121Z,0.00
2018-02-02T21:15:08.020Z,0.00
2018-02-02T21:16:08.025Z,0.00
2018-02-02T21:18:00.962Z,0.00
2018-02-02T21:19:01.002Z,0.00
2018-02-02T21:20:53.922Z,0.00
2018-02-02T21:21:53.884Z,0.00
2018-02-02T21:23:46.821Z,0.00
2018-02-02T21:24:46.816Z,0.00
2018-02-02T21:26:39.762Z,0.00
2018-02-02T21:27:39.750Z,0.00
2018-02-02T21:29:32.672Z,0.00
2018-02-02T21:30:32.679Z,0.00
2018-02-02T21:32:25.625Z,0.00
2018-02-02T21:33:25.611Z,0.00
2018-02-02T21:35:18.542Z,0.00
2018-02-02T21:36:18.548Z,0.00
2018-02-02T21:38:11.489Z,0.00
2018-02-02T21:39:11.483Z,0.00
2018-02-02T21:41:04.400Z,0.00
2018-02-02T21:42:04.412Z,0.00
2018-02-02T21:43:57.363Z,0.00
2018-02-02T21:44:57.352Z,0.00
2018-02-02T21:46:50.311Z,0.00
2018-02-02T21:47:50.288Z,0.00
2018-02-02T21:49:43.705Z,0.00
2018-02-02T21:50:43.722Z,0.00
2018-02-02T21:52:37.166Z,0.00
2018-02-02T21:53:37.158Z,0.00
2018-02-02T21:55:30.077Z,0.00
2018-02-02T21:56:30.087Z,0.00
2018-02-02T21:58:23.029Z,0.00
2018-02-02T21:59:23.018Z,0.00
2018-02-02T22:01:17.436Z,0.00
2018-02-02T22:02:17.439Z,0.00
2018-02-02T22:04:10.394Z,0.00
2018-02-02T22:05:10.382Z,0.00
2018-02-02T22:07:03.303Z,0.00
2018-02-02T22:08:03.317Z,0.00
2018-02-02T22:09:56.253Z,0.00
2018-02-02T22:10:56.245Z,0.00
2018-02-02T22:12:49.167Z,0.00
2018-02-02T22:13:49.176Z,0.00
2018-02-02T22:15:42.115Z,0.00
2018-02-02T22:16:42.103Z,0.00
2018-02-02T22:18:35.046Z,0.00
2018-02-02T22:19:35.035Z,0.00
2018-02-02T22:21:27.960Z,0.00
2018-02-02T22:22:27.969Z,0.00
2018-02-02T22:24:20.908Z,0.00
2018-02-02T22:25:20.901Z,0.00
2018-02-02T22:27:13.825Z,0.00
2018-02-02T22:28:13.839Z,0.00
2018-02-02T22:30:06.765Z,0.00
2018-02-02T22:31:06.763Z,0.00
2018-02-02T22:32:59.685Z,0.00
2018-02-02T22:33:59.696Z,0.00
2018-02-02T22:35:52.656Z,0.00
2018-02-02T22:36:52.668Z,0.00
2018-02-02T22:38:45.603Z,0.00
2018-02-02T22:39:45.577Z,0.00
2018-02-02T22:41:38.494Z,0.00
2018-02-02T22:42:38.510Z,0.00
2018-02-02T22:44:31.444Z,0.00
2018-02-02T22:45:31.436Z,0.00
2018-02-02T22:47:24.362Z,0.00
2018-02-02T22:48:24.375Z,0.00
2018-02-02T22:50:17.313Z,0.00
2018-02-02T22:51:17.302Z,0.00
2018-02-02T22:53:10.223Z,0.00
2018-02-02T22:54:10.235Z,0.00
2018-02-02T22:56:03.172Z,0.00
2018-02-02T22:57:03.165Z,0.00
2018-02-02T22:58:56.478Z,0.00
2018-02-02T22:59:56.289Z,0.00
2018-02-02T23:01:49.035Z,0.00
2018-02-02T23:02:49.026Z,0.00
2018-02-02T23:04:41.958Z,0.00
2018-02-02T23:05:41.963Z,0.00
2018-02-02T23:07:35.395Z,0.00
2018-02-02T23:08:35.384Z,0.00
2018-02-02T23:10:28.326Z,0.00
2018-02-02T23:11:28.314Z,0.00
2018-02-02T23:13:21.242Z,0.00
2018-02-02T23:14:21.251Z,0.00
2018-02-02T23:16:14.195Z,0.00
2018-02-02T23:17:14.193Z,0.00
2018-02-02T23:19:07.600Z,0.00
2018-02-02T23:20:07.614Z,0.00
2018-02-02T23:22:00.563Z,0.00
2018-02-02T23:23:00.544Z,0.00
2018-02-02T23:24:53.470Z,0.00
2018-02-02T23:25:53.479Z,0.00
2018-02-02T23:27:46.427Z,0.00
2018-02-02T23:28:46.414Z,0.00
2018-02-02T23:30:39.361Z,0.00
2018-02-02T23:31:39.351Z,0.00
2018-02-02T23:33:32.272Z,0.00
2018-02-02T23:34:32.286Z,0.00
2018-02-02T23:36:25.215Z,0.00
2018-02-02T23:37:25.215Z,0.00
2018-02-02T23:39:18.136Z,0.00
2018-02-02T23:40:18.146Z,0.00
2018-02-02T23:42:11.088Z,0.00
2018-02-02T23:43:11.077Z,0.00
2018-02-02T23:45:03.998Z,0.00
2018-02-02T23:46:04.007Z,0.00
2018-02-02T23:47:56.943Z,0.00
2018-02-02T23:48:56.937Z,0.00
2018-02-02T23:50:49.848Z,0.00
2018-02-02T23:51:49.862Z,0.00
2018-02-02T23:53:43.299Z,0.00
2018-02-02T23:54:43.297Z,0.00
2018-02-02T23:56:36.236Z,0.00
2018-02-02T23:57:36.222Z,0.00
2018-02-02T23:59:29.146Z,0.00
